sensor_id;sensor_type;location;lat;lon;timestamp;pressure;altitude;pressure_sealevel;temperature;humidity
19890;BME280;10107;51.198;6.824;2023-05-03T00:02:50;-21468.78;;;5.65;96.97
19890;BME280;10107;51.198;6.824;2023-05-03T00:06:53;-21466.66;;;5.56;97.55
19890;BME280;10107;51.198;6.824;2023-05-03T00:10:58;-21464.78;;;5.49;98.01
19890;BME280;10107;51.198;6.824;2023-05-03T00:15:01;-21462.38;;;5.40;98.42
19890;BME280;10107;51.198;6.824;2023-05-03T00:19:03;-21461.31;;;5.36;99.74
19890;BME280;10107;51.198;6.824;2023-05-03T00:23:05;-21459.84;;;5.30;100.00
19890;BME280;10107;51.198;6.824;2023-05-03T00:27:08;-21458.50;;;5.25;100.00
19890;BME280;10107;51.198;6.824;2023-05-03T00:31:11;-21456.91;;;5.19;100.00
19890;BME280;10107;51.198;6.824;2023-05-03T00:35:12;-21455.56;;;5.14;100.00
19890;BME280;10107;51.198;6.824;2023-05-03T00:39:15;-21453.97;;;5.08;100.00
19890;BME280;10107;51.198;6.824;2023-05-03T00:43:16;-21452.50;;;5.02;100.00
19890;BME280;10107;51.198;6.824;2023-05-03T00:47:20;-21451.44;;;4.98;100.00
19890;BME280;10107;51.198;6.824;2023-05-03T00:51:25;-21449.56;;;4.91;100.00
19890;BME280;10107;51.198;6.824;2023-05-03T00:55:28;-21449.28;;;4.90;100.00
19890;BME280;10107;51.198;6.824;2023-05-03T00:59:31;-21448.75;;;4.88;100.00
19890;BME280;10107;51.198;6.824;2023-05-03T01:03:35;-21447.16;;;4.82;100.00
19890;BME280;10107;51.198;6.824;2023-05-03T01:07:47;-21445.41;;;4.75;100.00
19890;BME280;10107;51.198;6.824;2023-05-03T01:11:59;-21445.00;;;4.73;100.00
19890;BME280;10107;51.198;6.824;2023-05-03T01:16:09;-21443.94;;;4.69;100.00
19890;BME280;10107;51.198;6.824;2023-05-03T01:20:17;-21443.13;;;4.66;100.00
19890;BME280;10107;51.198;6.824;2023-05-03T01:24:23;-21442.47;;;4.64;100.00
19890;BME280;10107;51.198;6.824;2023-05-03T01:28:29;-21441.28;;;4.59;100.00
19890;BME280;10107;51.198;6.824;2023-05-03T01:32:38;-21439.78;;;4.53;100.00
19890;BME280;10107;51.198;6.824;2023-05-03T01:36:44;-21438.72;;;4.49;100.00
19890;BME280;10107;51.198;6.824;2023-05-03T01:40:47;-21437.53;;;4.45;100.00
19890;BME280;10107;51.198;6.824;2023-05-03T01:44:51;-21437.53;;;4.45;100.00
19890;BME280;10107;51.198;6.824;2023-05-03T01:48:54;-21438.72;;;4.49;100.00
19890;BME280;10107;51.198;6.824;2023-05-03T01:52:56;-21440.88;;;4.57;100.00
19890;BME280;10107;51.198;6.824;2023-05-03T01:56:57;-21440.47;;;4.56;100.00
19890;BME280;10107;51.198;6.824;2023-05-03T02:01:04;-21440.19;;;4.55;100.00
19890;BME280;10107;51.198;6.824;2023-05-03T02:05:07;-21440.06;;;4.54;100.00
19890;BME280;10107;51.198;6.824;2023-05-03T02:09:09;-21439.41;;;4.52;100.00
19890;BME280;10107;51.198;6.824;2023-05-03T02:13:11;-21438.19;;;4.47;100.00
19890;BME280;10107;51.198;6.824;2023-05-03T02:17:14;-21436.84;;;4.42;100.00
19890;BME280;10107;51.198;6.824;2023-05-03T02:21:17;-21436.31;;;4.40;100.00
19890;BME280;10107;51.198;6.824;2023-05-03T02:25:18;-21435.91;;;4.39;100.00
19890;BME280;10107;51.198;6.824;2023-05-03T02:29:22;-21436.19;;;4.40;100.00
19890;BME280;10107;51.198;6.824;2023-05-03T02:33:25;-21435.78;;;4.38;100.00
19890;BME280;10107;51.198;6.824;2023-05-03T02:37:27;-21434.59;;;4.33;100.00
19890;BME280;10107;51.198;6.824;2023-05-03T02:41:30;-21433.38;;;4.29;100.00
19890;BME280;10107;51.198;6.824;2023-05-03T02:45:34;-21432.84;;;4.27;100.00
19890;BME280;10107;51.198;6.824;2023-05-03T02:49:37;-21432.03;;;4.24;100.00
19890;BME280;10107;51.198;6.824;2023-05-03T02:53:40;-21430.16;;;4.16;100.00
19890;BME280;10107;51.198;6.824;2023-05-03T02:57:42;-21428.31;;;4.09;100.00
19890;BME280;10107;51.198;6.824;2023-05-03T03:01:46;-21426.28;;;4.02;100.00
19890;BME280;10107;51.198;6.824;2023-05-03T03:05:51;-21424.56;;;3.95;100.00
19890;BME280;10107;51.198;6.824;2023-05-03T03:09:53;-21422.69;;;3.88;100.00
19890;BME280;10107;51.198;6.824;2023-05-03T03:13:55;-21421.06;;;3.82;100.00
19890;BME280;10107;51.198;6.824;2023-05-03T03:17:59;-21420.13;;;3.78;100.00
19890;BME280;10107;51.198;6.824;2023-05-03T03:22:02;-21418.81;;;3.73;100.00
19890;BME280;10107;51.198;6.824;2023-05-03T03:26:05;-21417.84;;;3.69;100.00
19890;BME280;10107;51.198;6.824;2023-05-03T03:30:08;-21416.78;;;3.65;100.00
19890;BME280;10107;51.198;6.824;2023-05-03T03:34:19;-21415.84;;;3.62;100.00
19890;BME280;10107;51.198;6.824;2023-05-03T03:38:23;-21414.91;;;3.58;100.00
19890;BME280;10107;51.198;6.824;2023-05-03T03:42:31;-21413.84;;;3.54;100.00
19890;BME280;10107;51.198;6.824;2023-05-03T03:46:33;-21413.19;;;3.51;100.00
19890;BME280;10107;51.198;6.824;2023-05-03T03:50:35;-21413.31;;;3.52;100.00
19890;BME280;10107;51.198;6.824;2023-05-03T03:54:38;-21412.91;;;3.50;100.00
19890;BME280;10107;51.198;6.824;2023-05-03T03:58:40;-21414.66;;;3.57;100.00
19890;BME280;10107;51.198;6.824;2023-05-03T04:02:44;-21416.78;;;3.65;100.00
19890;BME280;10107;51.198;6.824;2023-05-03T04:06:50;-21418.94;;;3.73;100.00
19890;BME280;10107;51.198;6.824;2023-05-03T04:10:53;-21420.53;;;3.80;100.00
19890;BME280;10107;51.198;6.824;2023-05-03T04:14:56;-21422.69;;;3.88;100.00
19890;BME280;10107;51.198;6.824;2023-05-03T04:18:58;-21425.22;;;3.97;100.00
19890;BME280;10107;51.198;6.824;2023-05-03T04:23:01;-21427.50;;;4.06;100.00
19890;BME280;10107;51.198;6.824;2023-05-03T04:27:06;-21429.78;;;4.15;100.00
19890;BME280;10107;51.198;6.824;2023-05-03T04:31:11;-21432.44;;;4.25;100.00
19890;BME280;10107;51.198;6.824;2023-05-03T04:35:14;-21435.13;;;4.35;100.00
19890;BME280;10107;51.198;6.824;2023-05-03T04:39:20;-21437.38;;;4.44;100.00
19890;BME280;10107;51.198;6.824;2023-05-03T04:43:24;-21440.88;;;4.57;100.00
19890;BME280;10107;51.198;6.824;2023-05-03T04:47:26;-21443.28;;;4.67;100.00
19890;BME280;10107;51.198;6.824;2023-05-03T04:51:28;-21445.53;;;4.75;100.00
19890;BME280;10107;51.198;6.824;2023-05-03T04:55:31;-21448.75;;;4.88;100.00
19890;BME280;10107;51.198;6.824;2023-05-03T04:59:35;-21451.81;;;5.00;100.00
19890;BME280;10107;51.198;6.824;2023-05-03T05:03:37;-21457.16;;;5.20;100.00
19890;BME280;10107;51.198;6.824;2023-05-03T05:07:44;-21466.91;;;5.58;98.28
19890;BME280;10107;51.198;6.824;2023-05-03T05:11:46;-21511.84;;;7.30;87.25
19890;BME280;10107;51.198;6.824;2023-05-03T05:15:53;-21583.06;;;10.05;70.78
19890;BME280;10107;51.198;6.824;2023-05-03T05:19:55;-21628.19;;;11.80;62.25
19890;BME280;10107;51.198;6.824;2023-05-03T05:23:59;-21659.63;;;13.02;55.50
19890;BME280;10107;51.198;6.824;2023-05-03T05:28:01;-21682.19;;;13.90;50.99
19890;BME280;10107;51.198;6.824;2023-05-03T05:32:05;-21697.31;;;14.49;48.76
19890;BME280;10107;51.198;6.824;2023-05-03T05:36:07;-21717.44;;;15.28;47.39
19890;BME280;10107;51.198;6.824;2023-05-03T05:40:10;-21738.72;;;16.11;44.70
19890;BME280;10107;51.198;6.824;2023-05-03T05:44:18;-21757.63;;;16.85;42.59
19890;BME280;10107;51.198;6.824;2023-05-03T05:48:23;-21777.81;;;17.64;39.53
19890;BME280;10107;51.198;6.824;2023-05-03T05:52:25;-21796.63;;;18.37;37.77
19890;BME280;10107;51.198;6.824;2023-05-03T05:56:27;-21824.19;;;19.46;36.69
19890;BME280;10107;51.198;6.824;2023-05-03T06:00:29;-21851.31;;;20.52;34.45
19890;BME280;10107;51.198;6.824;2023-05-03T06:04:32;-21874.22;;;21.43;32.74
19890;BME280;10107;51.198;6.824;2023-05-03T06:08:34;-21907.09;;;22.72;30.55
19890;BME280;10107;51.198;6.824;2023-05-03T06:12:36;-21925.38;;;23.45;29.58
19890;BME280;10107;51.198;6.824;2023-05-03T06:16:42;-21941.81;;;24.10;27.89
19890;BME280;10107;51.198;6.824;2023-05-03T06:20:48;-21973.88;;;25.37;26.44
19890;BME280;10107;51.198;6.824;2023-05-03T06:24:51;-21990.91;;;26.05;25.50
19890;BME280;10107;51.198;6.824;2023-05-03T06:28:53;-21997.59;;;26.32;24.13
19890;BME280;10107;51.198;6.824;2023-05-03T06:32:55;-21982.50;;;25.72;24.67
19890;BME280;10107;51.198;6.824;2023-05-03T06:36:59;-22021.81;;;27.28;23.46
19890;BME280;10107;51.198;6.824;2023-05-03T06:41:00;-22042.75;;;28.12;22.58
19890;BME280;10107;51.198;6.824;2023-05-03T06:45:02;-22046.59;;;28.27;22.02
19890;BME280;10107;51.198;6.824;2023-05-03T06:49:04;-22060.31;;;28.82;20.84
19890;BME280;10107;51.198;6.824;2023-05-03T06:53:07;-22077.88;;;29.52;20.83
19890;BME280;10107;51.198;6.824;2023-05-03T06:57:11;-22095.53;;;30.23;20.16
19890;BME280;10107;51.198;6.824;2023-05-03T07:01:13;-22078.75;;;29.56;19.91
19890;BME280;10107;51.198;6.824;2023-05-03T07:05:15;-22082.22;;;29.70;20.51
19890;BME280;10107;51.198;6.824;2023-05-03T07:09:18;-22113.66;;;30.96;18.81
19890;BME280;10107;51.198;6.824;2023-05-03T07:13:19;-22118.91;;;31.17;18.60
19890;BME280;10107;51.198;6.824;2023-05-03T07:17:21;-22114.81;;;31.01;18.19
19890;BME280;10107;51.198;6.824;2023-05-03T07:21:23;-22103.56;;;30.55;18.82
19890;BME280;10107;51.198;6.824;2023-05-03T07:25:27;-22146.94;;;32.30;17.41
19890;BME280;10107;51.198;6.824;2023-05-03T07:29:29;-22158.38;;;32.76;16.25
19890;BME280;10107;51.198;6.824;2023-05-03T07:33:33;-22168.16;;;33.16;16.26
19890;BME280;10107;51.198;6.824;2023-05-03T07:37:34;-22164.34;;;33.00;16.58
19890;BME280;10107;51.198;6.824;2023-05-03T07:41:39;-22189.75;;;34.03;16.14
19890;BME280;10107;51.198;6.824;2023-05-03T07:45:40;-22156.84;;;32.70;16.54
19890;BME280;10107;51.198;6.824;2023-05-03T07:49:42;-22130.00;;;31.62;16.39
19890;BME280;10107;51.198;6.824;2023-05-03T07:53:45;-22143.88;;;32.17;16.33
19890;BME280;10107;51.198;6.824;2023-05-03T07:57:48;-22169.56;;;33.21;15.29
19890;BME280;10107;51.198;6.824;2023-05-03T08:01:50;-22163.47;;;32.97;15.88
19890;BME280;10107;51.198;6.824;2023-05-03T08:05:51;-22101.41;;;30.47;17.55
19890;BME280;10107;51.198;6.824;2023-05-03T08:09:53;-22051.09;;;28.45;19.43
19890;BME280;10107;51.198;6.824;2023-05-03T08:13:58;-22048.38;;;28.34;20.94
19890;BME280;10107;51.198;6.824;2023-05-03T08:17:59;-22054.81;;;28.60;20.18
19890;BME280;10107;51.198;6.824;2023-05-03T08:22:01;-22001.34;;;26.46;20.74
19890;BME280;10107;51.198;6.824;2023-05-03T08:26:04;-21997.34;;;26.31;21.00
19890;BME280;10107;51.198;6.824;2023-05-03T08:30:08;-22012.53;;;26.91;20.69
19890;BME280;10107;51.198;6.824;2023-05-03T08:34:10;-22014.72;;;27.00;20.74
19890;BME280;10107;51.198;6.824;2023-05-03T08:38:12;-22011.25;;;26.86;20.83
19890;BME280;10107;51.198;6.824;2023-05-03T08:42:14;-22041.34;;;28.06;21.43
19890;BME280;10107;51.198;6.824;2023-05-03T08:46:17;-22053.66;;;28.55;19.57
19890;BME280;10107;51.198;6.824;2023-05-03T08:50:20;-22028.34;;;27.54;20.13
19890;BME280;10107;51.198;6.824;2023-05-03T08:54:21;-21995.03;;;26.21;21.34
19890;BME280;10107;51.198;6.824;2023-05-03T08:58:23;-22001.19;;;26.46;21.67
19890;BME280;10107;51.198;6.824;2023-05-03T09:02:27;-22033.09;;;27.73;21.13
19890;BME280;10107;51.198;6.824;2023-05-03T09:06:29;-22031.94;;;27.69;19.92
19890;BME280;10107;51.198;6.824;2023-05-03T09:10:34;-22050.31;;;28.42;20.50
19890;BME280;10107;51.198;6.824;2023-05-03T09:14:43;-22049.81;;;28.40;19.97
19890;BME280;10107;51.198;6.824;2023-05-03T09:18:57;-22031.19;;;27.65;21.60
19890;BME280;10107;51.198;6.824;2023-05-03T09:22:58;-22045.06;;;28.21;21.83
19890;BME280;10107;51.198;6.824;2023-05-03T09:27:01;-22039.53;;;27.99;19.83
19890;BME280;10107;51.198;6.824;2023-05-03T09:31:19;-22015.88;;;27.04;20.29
19890;BME280;10107;51.198;6.824;2023-05-03T09:35:22;-22012.03;;;26.89;21.29
19890;BME280;10107;51.198;6.824;2023-05-03T09:39:23;-22022.56;;;27.31;21.62
19890;BME280;10107;51.198;6.824;2023-05-03T09:43:27;-22017.56;;;27.11;20.63
19890;BME280;10107;51.198;6.824;2023-05-03T09:47:30;-22012.66;;;26.92;20.45
19890;BME280;10107;51.198;6.824;2023-05-03T09:51:36;-22009.06;;;26.77;20.89
19890;BME280;10107;51.198;6.824;2023-05-03T09:55:40;-22024.38;;;27.38;20.71
19890;BME280;10107;51.198;6.824;2023-05-03T09:59:44;-22000.44;;;26.43;21.06
19890;BME280;10107;51.198;6.824;2023-05-03T10:03:47;-22016.53;;;27.07;20.54
19890;BME280;10107;51.198;6.824;2023-05-03T10:07:53;-21998.38;;;26.35;21.46
19890;BME280;10107;51.198;6.824;2023-05-03T10:12:03;-22011.88;;;26.89;22.22
19890;BME280;10107;51.198;6.824;2023-05-03T10:16:07;-22001.59;;;26.47;21.53
19890;BME280;10107;51.198;6.824;2023-05-03T10:20:15;-21987.69;;;25.92;22.03
19890;BME280;10107;51.198;6.824;2023-05-03T10:24:23;-21980.06;;;25.62;22.58
19890;BME280;10107;51.198;6.824;2023-05-03T10:28:25;-21984.97;;;25.81;22.37
19890;BME280;10107;51.198;6.824;2023-05-03T10:32:28;-22002.88;;;26.53;22.63
19890;BME280;10107;51.198;6.824;2023-05-03T10:36:30;-21988.97;;;25.97;22.62
19890;BME280;10107;51.198;6.824;2023-05-03T10:40:41;-22006.50;;;26.67;22.43
19890;BME280;10107;51.198;6.824;2023-05-03T10:44:50;-22034.66;;;27.79;21.97
19890;BME280;10107;51.198;6.824;2023-05-03T10:49:16;-22031.19;;;27.65;21.15
19890;BME280;10107;51.198;6.824;2023-05-03T10:53:35;-22064.16;;;28.97;21.28
19890;BME280;10107;51.198;6.824;2023-05-03T10:57:40;-22075.69;;;29.44;20.33
19890;BME280;10107;51.198;6.824;2023-05-03T11:01:43;-22074.78;;;29.40;19.38
19890;BME280;10107;51.198;6.824;2023-05-03T11:05:47;-22070.69;;;29.23;19.48
19890;BME280;10107;51.198;6.824;2023-05-03T11:09:48;-22045.19;;;28.21;20.21
19890;BME280;10107;51.198;6.824;2023-05-03T11:13:53;-22034.53;;;27.79;21.46
19890;BME280;10107;51.198;6.824;2023-05-03T11:17:56;-22023.09;;;27.33;20.75
19890;BME280;10107;51.198;6.824;2023-05-03T11:21:58;-22028.88;;;27.56;21.21
19890;BME280;10107;51.198;6.824;2023-05-03T11:26:04;-22031.31;;;27.66;21.48
19890;BME280;10107;51.198;6.824;2023-05-03T11:30:09;-22016.66;;;27.08;21.84
19890;BME280;10107;51.198;6.824;2023-05-03T11:34:14;-22005.84;;;26.64;22.85
19890;BME280;10107;51.198;6.824;2023-05-03T11:38:16;-22028.22;;;27.54;21.97
19890;BME280;10107;51.198;6.824;2023-05-03T11:42:18;-22028.22;;;27.54;21.79
19890;BME280;10107;51.198;6.824;2023-05-03T11:46:23;-22023.22;;;27.34;23.58
19890;BME280;10107;51.198;6.824;2023-05-03T11:50:26;-22030.28;;;27.62;22.45
19890;BME280;10107;51.198;6.824;2023-05-03T11:54:28;-22036.19;;;27.85;22.65
19890;BME280;10107;51.198;6.824;2023-05-03T11:58:30;-22025.78;;;27.44;22.13
19890;BME280;10107;51.198;6.824;2023-05-03T12:02:35;-22035.81;;;27.84;21.88
19890;BME280;10107;51.198;6.824;2023-05-03T12:06:37;-22013.31;;;26.94;22.17
19890;BME280;10107;51.198;6.824;2023-05-03T12:10:39;-22017.69;;;27.12;24.63
19890;BME280;10107;51.198;6.824;2023-05-03T12:14:55;-22016.78;;;27.08;22.36
19890;BME280;10107;51.198;6.824;2023-05-03T12:18:58;-22003.78;;;26.56;23.02
19890;BME280;10107;51.198;6.824;2023-05-03T12:23:03;-21983.16;;;25.74;23.63
19890;BME280;10107;51.198;6.824;2023-05-03T12:27:07;-21992.44;;;26.11;25.13
19890;BME280;10107;51.198;6.824;2023-05-03T12:31:08;-21961.22;;;24.87;25.19
19890;BME280;10107;51.198;6.824;2023-05-03T12:35:11;-21963.03;;;24.94;24.97
19890;BME280;10107;51.198;6.824;2023-05-03T12:39:13;-21967.28;;;25.11;26.10
19890;BME280;10107;51.198;6.824;2023-05-03T12:43:14;-21969.47;;;25.20;25.40
19890;BME280;10107;51.198;6.824;2023-05-03T12:47:16;-21951.91;;;24.50;24.75
19890;BME280;10107;51.198;6.824;2023-05-03T12:51:19;-21941.81;;;24.10;26.15
19890;BME280;10107;51.198;6.824;2023-05-03T12:55:21;-21950.09;;;24.43;26.39
19890;BME280;10107;51.198;6.824;2023-05-03T12:59:22;-21947.00;;;24.30;25.96
19890;BME280;10107;51.198;6.824;2023-05-03T13:03:24;-21937.94;;;23.95;26.09
19890;BME280;10107;51.198;6.824;2023-05-03T13:07:28;-21930.03;;;23.63;26.67
19890;BME280;10107;51.198;6.824;2023-05-03T13:11:30;-21918.75;;;23.19;26.55
19890;BME280;10107;51.198;6.824;2023-05-03T13:15:34;-21908.38;;;22.78;27.51
19890;BME280;10107;51.198;6.824;2023-05-03T13:19:37;-21915.91;;;23.07;28.51
19890;BME280;10107;51.198;6.824;2023-05-03T13:23:40;-21905.66;;;22.67;27.80
19890;BME280;10107;51.198;6.824;2023-05-03T13:27:41;-21898.28;;;22.38;28.54
19890;BME280;10107;51.198;6.824;2023-05-03T13:31:43;-21896.97;;;22.32;28.53
19890;BME280;10107;51.198;6.824;2023-05-03T13:35:45;-21888.00;;;21.97;29.64
19890;BME280;10107;51.198;6.824;2023-05-03T13:39:48;-21878.78;;;21.61;29.86
19890;BME280;10107;51.198;6.824;2023-05-03T13:43:49;-21867.84;;;21.17;29.80
19890;BME280;10107;51.198;6.824;2023-05-03T13:47:52;-21863.56;;;21.01;31.74
19890;BME280;10107;51.198;6.824;2023-05-03T13:51:53;-21867.06;;;21.14;31.98
19890;BME280;10107;51.198;6.824;2023-05-03T13:55:57;-21863.97;;;21.02;31.25
19890;BME280;10107;51.198;6.824;2023-05-03T13:59:58;-21846.38;;;20.33;31.69
19890;BME280;10107;51.198;6.824;2023-05-03T14:04:00;-21850.94;;;20.51;32.32
19890;BME280;10107;51.198;6.824;2023-05-03T14:08:03;-21844.28;;;20.25;32.23
19890;BME280;10107;51.198;6.824;2023-05-03T14:12:06;-21844.94;;;20.27;32.40
19890;BME280;10107;51.198;6.824;2023-05-03T14:16:14;-21844.81;;;20.27;32.08
19890;BME280;10107;51.198;6.824;2023-05-03T14:20:16;-21837.00;;;19.96;32.75
19890;BME280;10107;51.198;6.824;2023-05-03T14:24:18;-21827.19;;;19.57;34.92
19890;BME280;10107;51.198;6.824;2023-05-03T14:28:21;-21829.56;;;19.67;33.98
19890;BME280;10107;51.198;6.824;2023-05-03T14:32:23;-21827.47;;;19.58;33.90
19890;BME280;10107;51.198;6.824;2023-05-03T14:36:25;-21828.25;;;19.62;33.63
19890;BME280;10107;51.198;6.824;2023-05-03T14:40:32;-21824.59;;;19.47;34.29
19890;BME280;10107;51.198;6.824;2023-05-03T14:44:35;-21824.19;;;19.46;34.16
19890;BME280;10107;51.198;6.824;2023-05-03T14:48:37;-21821.84;;;19.36;35.20
19890;BME280;10107;51.198;6.824;2023-05-03T14:52:39;-21822.78;;;19.40;35.28
19890;BME280;10107;51.198;6.824;2023-05-03T14:56:41;-21823.94;;;19.45;35.20
19890;BME280;10107;51.198;6.824;2023-05-03T15:00:44;-21819.63;;;19.28;35.08
19890;BME280;10107;51.198;6.824;2023-05-03T15:04:46;-21816.91;;;19.17;35.26
19890;BME280;10107;51.198;6.824;2023-05-03T15:08:47;-21818.72;;;19.24;35.35
19890;BME280;10107;51.198;6.824;2023-05-03T15:12:50;-21813.09;;;19.02;35.89
19890;BME280;10107;51.198;6.824;2023-05-03T15:16:53;-21814.94;;;19.09;36.01
19890;BME280;10107;51.198;6.824;2023-05-03T15:20:55;-21811.53;;;18.96;35.96
19890;BME280;10107;51.198;6.824;2023-05-03T15:24:57;-21805.53;;;18.72;36.02
19890;BME280;10107;51.198;6.824;2023-05-03T15:28:59;-21801.22;;;18.55;36.16
19890;BME280;10107;51.198;6.824;2023-05-03T15:33:02;-21801.59;;;18.57;36.61
19890;BME280;10107;51.198;6.824;2023-05-03T15:37:04;-21795.59;;;18.33;36.69
19890;BME280;10107;51.198;6.824;2023-05-03T15:41:06;-21789.56;;;18.10;37.30
19890;BME280;10107;51.198;6.824;2023-05-03T15:45:08;-21785.00;;;17.92;37.62
19890;BME280;10107;51.198;6.824;2023-05-03T15:49:11;-21788.16;;;18.04;38.17
19890;BME280;10107;51.198;6.824;2023-05-03T15:53:13;-21788.41;;;18.05;38.17
19890;BME280;10107;51.198;6.824;2023-05-03T15:57:15;-21786.31;;;17.97;38.12
19890;BME280;10107;51.198;6.824;2023-05-03T16:01:17;-21787.50;;;18.01;38.38
19890;BME280;10107;51.198;6.824;2023-05-03T16:05:20;-21781.97;;;17.80;38.77
19890;BME280;10107;51.198;6.824;2023-05-03T16:09:22;-21783.44;;;17.86;39.26
19890;BME280;10107;51.198;6.824;2023-05-03T16:13:24;-21782.66;;;17.83;39.13
19890;BME280;10107;51.198;6.824;2023-05-03T16:17:26;-21778.84;;;17.68;38.85
19890;BME280;10107;51.198;6.824;2023-05-03T16:21:29;-21775.19;;;17.53;39.49
19890;BME280;10107;51.198;6.824;2023-05-03T16:25:31;-21774.53;;;17.51;39.81
19890;BME280;10107;51.198;6.824;2023-05-03T16:29:33;-21776.22;;;17.57;39.74
19890;BME280;10107;51.198;6.824;2023-05-03T16:33:36;-21771.50;;;17.39;39.86
19890;BME280;10107;51.198;6.824;2023-05-03T16:37:39;-21768.50;;;17.27;40.53
19890;BME280;10107;51.198;6.824;2023-05-03T16:41:41;-21767.59;;;17.24;40.47
19890;BME280;10107;51.198;6.824;2023-05-03T16:45:43;-21764.06;;;17.10;41.04
19890;BME280;10107;51.198;6.824;2023-05-03T16:49:44;-21762.09;;;17.02;40.37
19890;BME280;10107;51.198;6.824;2023-05-03T16:53:47;-21761.28;;;16.99;41.25
19890;BME280;10107;51.198;6.824;2023-05-03T16:57:49;-21762.22;;;17.02;41.49
19890;BME280;10107;51.198;6.824;2023-05-03T17:01:51;-21761.94;;;17.01;41.32
19890;BME280;10107;51.198;6.824;2023-05-03T17:05:52;-21759.97;;;16.94;42.14
19890;BME280;10107;51.198;6.824;2023-05-03T17:09:56;-21758.28;;;16.87;42.26
19890;BME280;10107;51.198;6.824;2023-05-03T17:13:58;-21754.88;;;16.74;42.36
19890;BME280;10107;51.198;6.824;2023-05-03T17:18:00;-21751.06;;;16.59;42.69
19890;BME280;10107;51.198;6.824;2023-05-03T17:22:03;-21749.09;;;16.51;43.10
19890;BME280;10107;51.198;6.824;2023-05-03T17:26:07;-21747.78;;;16.46;43.07
19890;BME280;10107;51.198;6.824;2023-05-03T17:30:10;-21747.53;;;16.45;43.63
19890;BME280;10107;51.198;6.824;2023-05-03T17:34:13;-21746.88;;;16.42;43.96
19890;BME280;10107;51.198;6.824;2023-05-03T17:38:14;-21743.72;;;16.30;44.45
19890;BME280;10107;51.198;6.824;2023-05-03T17:42:17;-21742.16;;;16.24;44.69
19890;BME280;10107;51.198;6.824;2023-05-03T17:46:19;-21742.00;;;16.23;45.29
19890;BME280;10107;51.198;6.824;2023-05-03T17:50:21;-21741.09;;;16.20;45.50
19890;BME280;10107;51.198;6.824;2023-05-03T17:54:23;-21737.56;;;16.06;45.71
19890;BME280;10107;51.198;6.824;2023-05-03T17:58:26;-21734.28;;;15.93;45.97
19890;BME280;10107;51.198;6.824;2023-05-03T18:02:28;-21731.91;;;15.84;46.85
19890;BME280;10107;51.198;6.824;2023-05-03T18:06:30;-21728.50;;;15.71;46.83
19890;BME280;10107;51.198;6.824;2023-05-03T18:10:32;-21724.81;;;15.56;47.38
19890;BME280;10107;51.198;6.824;2023-05-03T18:14:35;-21720.47;;;15.39;48.03
19890;BME280;10107;51.198;6.824;2023-05-03T18:18:38;-21716.13;;;15.22;48.37
19890;BME280;10107;51.198;6.824;2023-05-03T18:22:39;-21712.97;;;15.10;49.21
19890;BME280;10107;51.198;6.824;2023-05-03T18:26:41;-21709.69;;;14.97;49.86
19890;BME280;10107;51.198;6.824;2023-05-03T18:30:44;-21705.47;;;14.81;50.47
19890;BME280;10107;51.198;6.824;2023-05-03T18:34:46;-21701.81;;;14.67;50.57
19890;BME280;10107;51.198;6.824;2023-05-03T18:38:47;-21698.78;;;14.55;51.40
19890;BME280;10107;51.198;6.824;2023-05-03T18:42:52;-21695.22;;;14.41;51.77
19890;BME280;10107;51.198;6.824;2023-05-03T18:46:55;-21692.72;;;14.31;52.14
19890;BME280;10107;51.198;6.824;2023-05-03T18:50:57;-21689.41;;;14.18;52.75
19890;BME280;10107;51.198;6.824;2023-05-03T18:55:01;-21686.53;;;14.07;52.97
19890;BME280;10107;51.198;6.824;2023-05-03T18:59:03;-21683.09;;;13.94;53.50
19890;BME280;10107;51.198;6.824;2023-05-03T19:03:06;-21680.72;;;13.84;53.92
19890;BME280;10107;51.198;6.824;2023-05-03T19:07:08;-21676.78;;;13.69;54.91
19890;BME280;10107;51.198;6.824;2023-05-03T19:11:12;-21674.41;;;13.60;54.96
19890;BME280;10107;51.198;6.824;2023-05-03T19:15:14;-21671.09;;;13.47;55.58
19890;BME280;10107;51.198;6.824;2023-05-03T19:19:17;-21668.59;;;13.37;55.78
19890;BME280;10107;51.198;6.824;2023-05-03T19:23:19;-21666.34;;;13.28;56.06
19890;BME280;10107;51.198;6.824;2023-05-03T19:27:21;-21664.63;;;13.22;56.46
19890;BME280;10107;51.198;6.824;2023-05-03T19:31:22;-21662.41;;;13.13;56.67
19890;BME280;10107;51.198;6.824;2023-05-03T19:35:25;-21659.75;;;13.03;56.51
19890;BME280;10107;51.198;6.824;2023-05-03T19:39:27;-21658.44;;;12.98;56.59
19890;BME280;10107;51.198;6.824;2023-05-03T19:43:32;-21655.94;;;12.88;57.27
19890;BME280;10107;51.198;6.824;2023-05-03T19:47:35;-21653.97;;;12.80;57.25
19890;BME280;10107;51.198;6.824;2023-05-03T19:51:38;-21652.38;;;12.74;56.85
19890;BME280;10107;51.198;6.824;2023-05-03T19:55:40;-21652.09;;;12.73;56.56
19890;BME280;10107;51.198;6.824;2023-05-03T19:59:41;-21650.13;;;12.65;57.95
19890;BME280;10107;51.198;6.824;2023-05-03T20:03:43;-21647.88;;;12.57;58.01
19890;BME280;10107;51.198;6.824;2023-05-03T20:07:47;-21645.91;;;12.49;57.22
19890;BME280;10107;51.198;6.824;2023-05-03T20:11:48;-21644.44;;;12.43;57.82
19890;BME280;10107;51.198;6.824;2023-05-03T20:15:50;-21643.41;;;12.39;58.49
19890;BME280;10107;51.198;6.824;2023-05-03T20:19:52;-21641.69;;;12.33;57.92
19890;BME280;10107;51.198;6.824;2023-05-03T20:23:55;-21640.09;;;12.26;58.12
19890;BME280;10107;51.198;6.824;2023-05-03T20:27:57;-21640.09;;;12.26;57.96
19890;BME280;10107;51.198;6.824;2023-05-03T20:31:58;-21638.78;;;12.21;58.12
19890;BME280;10107;51.198;6.824;2023-05-03T20:36:02;-21638.25;;;12.19;58.38
19890;BME280;10107;51.198;6.824;2023-05-03T20:40:06;-21637.06;;;12.15;58.21
19890;BME280;10107;51.198;6.824;2023-05-03T20:44:10;-21636.53;;;12.13;58.04
19890;BME280;10107;51.198;6.824;2023-05-03T20:48:13;-21634.94;;;12.06;58.83
19890;BME280;10107;51.198;6.824;2023-05-03T20:52:14;-21633.50;;;12.01;59.20
19890;BME280;10107;51.198;6.824;2023-05-03T20:56:18;-21631.78;;;11.94;59.79
19890;BME280;10107;51.198;6.824;2023-05-03T21:00:20;-21629.91;;;11.87;60.03
19890;BME280;10107;51.198;6.824;2023-05-03T21:04:23;-21629.00;;;11.83;60.06
19890;BME280;10107;51.198;6.824;2023-05-03T21:08:25;-21628.19;;;11.80;60.48
19890;BME280;10107;51.198;6.824;2023-05-03T21:12:28;-21626.88;;;11.75;60.70